sensor_id;sensor_type;location;lat;lon;timestamp;temperature;humidity
46488;DHT22;32202;48.780;9.204;2022-08-01T00:00:27;22.90;55.70
46488;DHT22;32202;48.780;9.204;2022-08-01T00:02:52;22.90;55.80
46488;DHT22;32202;48.780;9.204;2022-08-01T00:05:18;22.90;55.90
46488;DHT22;32202;48.780;9.204;2022-08-01T00:07:44;22.80;56.70
46488;DHT22;32202;48.780;9.204;2022-08-01T00:10:12;22.80;56.20
46488;DHT22;32202;48.780;9.204;2022-08-01T00:12:39;22.80;56.40
46488;DHT22;32202;48.780;9.204;2022-08-01T00:15:07;22.80;56.50
46488;DHT22;32202;48.780;9.204;2022-08-01T00:17:33;22.80;56.50
46488;DHT22;32202;48.780;9.204;2022-08-01T00:19:59;22.80;56.70
46488;DHT22;32202;48.780;9.204;2022-08-01T00:22:25;22.80;56.90
46488;DHT22;32202;48.780;9.204;2022-08-01T00:24:50;22.70;57.00
46488;DHT22;32202;48.780;9.204;2022-08-01T00:27:16;22.70;57.30
46488;DHT22;32202;48.780;9.204;2022-08-01T00:29:42;22.70;57.40
46488;DHT22;32202;48.780;9.204;2022-08-01T00:32:07;22.70;57.50
46488;DHT22;32202;48.780;9.204;2022-08-01T00:34:33;22.60;57.60
46488;DHT22;32202;48.780;9.204;2022-08-01T00:36:58;22.60;57.80
46488;DHT22;32202;48.780;9.204;2022-08-01T00:39:24;22.60;58.00
46488;DHT22;32202;48.780;9.204;2022-08-01T00:41:50;22.50;58.00
46488;DHT22;32202;48.780;9.204;2022-08-01T00:44:16;22.50;58.20
46488;DHT22;32202;48.780;9.204;2022-08-01T00:46:41;22.50;58.30
46488;DHT22;32202;48.780;9.204;2022-08-01T00:49:07;22.50;58.40
46488;DHT22;32202;48.780;9.204;2022-08-01T00:51:33;22.50;58.60
46488;DHT22;32202;48.780;9.204;2022-08-01T00:53:59;22.40;58.60
46488;DHT22;32202;48.780;9.204;2022-08-01T00:56:26;22.40;59.00
46488;DHT22;32202;48.780;9.204;2022-08-01T00:58:52;22.30;59.10
46488;DHT22;32202;48.780;9.204;2022-08-01T01:01:18;22.30;59.30
46488;DHT22;32202;48.780;9.204;2022-08-01T01:03:46;22.30;59.40
46488;DHT22;32202;48.780;9.204;2022-08-01T01:12:12;22.10;60.20
46488;DHT22;32202;48.780;9.204;2022-08-01T01:17:06;22.10;61.50
46488;DHT22;32202;48.780;9.204;2022-08-01T01:19:37;22.00;61.20
46488;DHT22;32202;48.780;9.204;2022-08-01T01:22:17;22.00;61.40
46488;DHT22;32202;48.780;9.204;2022-08-01T01:25:17;21.90;61.60
46488;DHT22;32202;48.780;9.204;2022-08-01T01:30:36;21.90;62.30
46488;DHT22;32202;48.780;9.204;2022-08-01T01:33:06;21.90;62.50
46488;DHT22;32202;48.780;9.204;2022-08-01T01:35:35;21.90;62.70
46488;DHT22;32202;48.780;9.204;2022-08-01T01:38:08;21.90;62.90
46488;DHT22;32202;48.780;9.204;2022-08-01T01:40:36;21.80;63.10
46488;DHT22;32202;48.780;9.204;2022-08-01T01:43:03;21.80;63.30
46488;DHT22;32202;48.780;9.204;2022-08-01T01:45:31;21.80;63.60
46488;DHT22;32202;48.780;9.204;2022-08-01T01:47:57;21.80;63.70
46488;DHT22;32202;48.780;9.204;2022-08-01T01:50:25;21.70;64.00
46488;DHT22;32202;48.780;9.204;2022-08-01T01:52:51;21.70;64.30
46488;DHT22;32202;48.780;9.204;2022-08-01T01:55:18;21.70;64.50
46488;DHT22;32202;48.780;9.204;2022-08-01T01:57:47;21.70;64.80
46488;DHT22;32202;48.780;9.204;2022-08-01T02:00:14;21.60;64.90
46488;DHT22;32202;48.780;9.204;2022-08-01T02:02:41;21.60;65.20
46488;DHT22;32202;48.780;9.204;2022-08-01T02:05:09;21.60;65.40
46488;DHT22;32202;48.780;9.204;2022-08-01T02:07:35;21.50;65.50
46488;DHT22;32202;48.780;9.204;2022-08-01T02:10:03;21.50;65.80
46488;DHT22;32202;48.780;9.204;2022-08-01T02:12:33;21.50;66.10
46488;DHT22;32202;48.780;9.204;2022-08-01T02:15:00;21.40;66.30
46488;DHT22;32202;48.780;9.204;2022-08-01T02:17:27;21.40;66.40
46488;DHT22;32202;48.780;9.204;2022-08-01T02:19:53;21.40;66.60
46488;DHT22;32202;48.780;9.204;2022-08-01T02:22:36;21.30;66.60
46488;DHT22;32202;48.780;9.204;2022-08-01T02:25:25;21.30;66.80
46488;DHT22;32202;48.780;9.204;2022-08-01T02:28:03;21.30;67.10
46488;DHT22;32202;48.780;9.204;2022-08-01T02:30:35;21.20;67.30
46488;DHT22;32202;48.780;9.204;2022-08-01T02:33:05;21.20;67.50
46488;DHT22;32202;48.780;9.204;2022-08-01T02:35:34;21.10;67.70
46488;DHT22;32202;48.780;9.204;2022-08-01T02:38:01;21.10;68.00
46488;DHT22;32202;48.780;9.204;2022-08-01T02:40:31;21.10;68.30
46488;DHT22;32202;48.780;9.204;2022-08-01T02:42:59;21.00;68.50
46488;DHT22;32202;48.780;9.204;2022-08-01T02:45:26;21.00;68.80
46488;DHT22;32202;48.780;9.204;2022-08-01T02:47:57;21.00;69.00
46488;DHT22;32202;48.780;9.204;2022-08-01T02:50:25;20.90;69.20
46488;DHT22;32202;48.780;9.204;2022-08-01T02:52:53;21.00;69.60
46488;DHT22;32202;48.780;9.204;2022-08-01T02:55:20;20.90;70.00
46488;DHT22;32202;48.780;9.204;2022-08-01T02:57:49;20.90;70.40
46488;DHT22;32202;48.780;9.204;2022-08-01T03:00:17;20.80;70.60
46488;DHT22;32202;48.780;9.204;2022-08-01T03:02:43;20.80;71.00
46488;DHT22;32202;48.780;9.204;2022-08-01T03:05:11;20.80;71.30
46488;DHT22;32202;48.780;9.204;2022-08-01T03:07:38;20.80;71.40
46488;DHT22;32202;48.780;9.204;2022-08-01T03:10:05;20.70;71.60
46488;DHT22;32202;48.780;9.204;2022-08-01T03:12:33;20.70;72.00
46488;DHT22;32202;48.780;9.204;2022-08-01T03:15:00;20.70;72.20
46488;DHT22;32202;48.780;9.204;2022-08-01T03:17:29;20.70;72.50
46488;DHT22;32202;48.780;9.204;2022-08-01T03:19:57;20.60;73.20
46488;DHT22;32202;48.780;9.204;2022-08-01T03:22:25;20.60;73.00
46488;DHT22;32202;48.780;9.204;2022-08-01T03:24:53;20.60;73.30
46488;DHT22;32202;48.780;9.204;2022-08-01T03:27:20;20.60;73.70
46488;DHT22;32202;48.780;9.204;2022-08-01T03:29:47;20.50;74.00
46488;DHT22;32202;48.780;9.204;2022-08-01T03:32:15;20.60;74.20
46488;DHT22;32202;48.780;9.204;2022-08-01T03:34:41;20.50;74.50
46488;DHT22;32202;48.780;9.204;2022-08-01T03:37:14;20.50;74.70
46488;DHT22;32202;48.780;9.204;2022-08-01T03:39:54;20.40;74.80
46488;DHT22;32202;48.780;9.204;2022-08-01T03:42:24;20.50;75.40
46488;DHT22;32202;48.780;9.204;2022-08-01T03:44:59;20.40;75.60
46488;DHT22;32202;48.780;9.204;2022-08-01T03:47:31;20.40;75.90
46488;DHT22;32202;48.780;9.204;2022-08-01T03:49:58;20.40;76.20
46488;DHT22;32202;48.780;9.204;2022-08-01T03:52:25;20.40;76.30
46488;DHT22;32202;48.780;9.204;2022-08-01T03:54:54;20.40;76.40
46488;DHT22;32202;48.780;9.204;2022-08-01T03:57:20;20.40;76.60
46488;DHT22;32202;48.780;9.204;2022-08-01T03:59:47;20.40;76.80
46488;DHT22;32202;48.780;9.204;2022-08-01T04:02:14;20.40;77.00
46488;DHT22;32202;48.780;9.204;2022-08-01T04:04:40;20.40;77.20
46488;DHT22;32202;48.780;9.204;2022-08-01T04:07:25;20.40;77.20
46488;DHT22;32202;48.780;9.204;2022-08-01T04:09:51;20.40;77.30
46488;DHT22;32202;48.780;9.204;2022-08-01T04:12:17;20.50;77.40
46488;DHT22;32202;48.780;9.204;2022-08-01T04:14:43;20.50;77.30
46488;DHT22;32202;48.780;9.204;2022-08-01T04:17:08;20.50;77.40
46488;DHT22;32202;48.780;9.204;2022-08-01T04:19:34;20.50;77.50
46488;DHT22;32202;48.780;9.204;2022-08-01T04:22:00;20.60;77.40
46488;DHT22;32202;48.780;9.204;2022-08-01T04:24:27;20.60;77.30
46488;DHT22;32202;48.780;9.204;2022-08-01T04:26:57;20.70;77.20
46488;DHT22;32202;48.780;9.204;2022-08-01T04:29:24;20.70;76.80
46488;DHT22;32202;48.780;9.204;2022-08-01T04:31:53;20.80;76.80
46488;DHT22;32202;48.780;9.204;2022-08-01T04:34:21;20.80;76.80
46488;DHT22;32202;48.780;9.204;2022-08-01T04:36:48;20.90;76.70
46488;DHT22;32202;48.780;9.204;2022-08-01T04:39:16;20.90;76.60
46488;DHT22;32202;48.780;9.204;2022-08-01T04:41:44;21.00;76.40
46488;DHT22;32202;48.780;9.204;2022-08-01T04:44:13;21.00;76.30
46488;DHT22;32202;48.780;9.204;2022-08-01T04:46:40;21.00;76.30
46488;DHT22;32202;48.780;9.204;2022-08-01T04:49:07;21.10;76.90
46488;DHT22;32202;48.780;9.204;2022-08-01T04:51:34;21.10;76.50
46488;DHT22;32202;48.780;9.204;2022-08-01T04:54:00;21.10;76.70
46488;DHT22;32202;48.780;9.204;2022-08-01T04:56:26;21.10;76.60
46488;DHT22;32202;48.780;9.204;2022-08-01T04:58:52;21.10;76.80
46488;DHT22;32202;48.780;9.204;2022-08-01T05:01:37;21.20;76.90
46488;DHT22;32202;48.780;9.204;2022-08-01T05:04:03;21.20;77.00
46488;DHT22;32202;48.780;9.204;2022-08-01T05:06:29;21.20;77.00
46488;DHT22;32202;48.780;9.204;2022-08-01T05:08:54;21.30;77.00
46488;DHT22;32202;48.780;9.204;2022-08-01T05:11:21;21.30;77.10
46488;DHT22;32202;48.780;9.204;2022-08-01T05:13:47;21.40;77.20
46488;DHT22;32202;48.780;9.204;2022-08-01T05:16:13;21.40;77.40
46488;DHT22;32202;48.780;9.204;2022-08-01T05:18:39;21.40;77.30
46488;DHT22;32202;48.780;9.204;2022-08-01T05:21:04;21.50;77.30
46488;DHT22;32202;48.780;9.204;2022-08-01T05:23:30;21.60;77.20
46488;DHT22;32202;48.780;9.204;2022-08-01T05:25:56;21.70;76.90
46488;DHT22;32202;48.780;9.204;2022-08-01T05:28:21;21.90;76.20
46488;DHT22;32202;48.780;9.204;2022-08-01T05:30:47;22.00;75.40
46488;DHT22;32202;48.780;9.204;2022-08-01T05:33:12;22.30;75.00
46488;DHT22;32202;48.780;9.204;2022-08-01T05:35:38;22.40;74.10
46488;DHT22;32202;48.780;9.204;2022-08-01T05:38:03;22.50;73.60
46488;DHT22;32202;48.780;9.204;2022-08-01T05:40:29;22.60;73.10
46488;DHT22;32202;48.780;9.204;2022-08-01T05:42:55;22.80;72.70
46488;DHT22;32202;48.780;9.204;2022-08-01T05:45:20;23.20;71.30
46488;DHT22;32202;48.780;9.204;2022-08-01T05:47:46;23.80;69.20
46488;DHT22;32202;48.780;9.204;2022-08-01T05:50:11;24.80;66.20
46488;DHT22;32202;48.780;9.204;2022-08-01T05:52:37;25.80;62.60
46488;DHT22;32202;48.780;9.204;2022-08-01T05:55:03;26.80;60.10
46488;DHT22;32202;48.780;9.204;2022-08-01T05:57:30;28.00;57.30
46488;DHT22;32202;48.780;9.204;2022-08-01T05:59:55;29.10;54.40
46488;DHT22;32202;48.780;9.204;2022-08-01T06:02:21;30.00;52.00
46488;DHT22;32202;48.780;9.204;2022-08-01T06:04:46;30.90;50.40
46488;DHT22;32202;48.780;9.204;2022-08-01T06:07:12;31.70;48.90
46488;DHT22;32202;48.780;9.204;2022-08-01T06:09:37;32.60;47.30
46488;DHT22;32202;48.780;9.204;2022-08-01T06:12:03;32.90;46.60
46488;DHT22;32202;48.780;9.204;2022-08-01T06:14:29;33.60;45.50
46488;DHT22;32202;48.780;9.204;2022-08-01T06:16:55;34.20;44.70
46488;DHT22;32202;48.780;9.204;2022-08-01T06:19:21;34.20;44.20
46488;DHT22;32202;48.780;9.204;2022-08-01T06:21:46;34.70;43.90
46488;DHT22;32202;48.780;9.204;2022-08-01T06:24:12;35.40;42.90
46488;DHT22;32202;48.780;9.204;2022-08-01T06:26:37;36.00;41.90
46488;DHT22;32202;48.780;9.204;2022-08-01T06:29:03;36.50;41.30
46488;DHT22;32202;48.780;9.204;2022-08-01T06:31:29;36.10;41.50
46488;DHT22;32202;48.780;9.204;2022-08-01T06:33:56;35.80;41.70
46488;DHT22;32202;48.780;9.204;2022-08-01T06:36:22;35.50;42.20
46488;DHT22;32202;48.780;9.204;2022-08-01T06:38:48;35.50;42.20
46488;DHT22;32202;48.780;9.204;2022-08-01T06:41:13;36.00;41.70
46488;DHT22;32202;48.780;9.204;2022-08-01T06:43:39;36.70;41.10
46488;DHT22;32202;48.780;9.204;2022-08-01T06:46:04;37.80;40.00
46488;DHT22;32202;48.780;9.204;2022-08-01T06:48:30;38.70;39.30
46488;DHT22;32202;48.780;9.204;2022-08-01T06:50:56;39.10;38.60
46488;DHT22;32202;48.780;9.204;2022-08-01T06:53:37;39.40;38.20
46488;DHT22;32202;48.780;9.204;2022-08-01T06:56:03;38.90;38.30
46488;DHT22;32202;48.780;9.204;2022-08-01T06:58:29;38.60;38.60
46488;DHT22;32202;48.780;9.204;2022-08-01T07:00:54;39.10;38.30
46488;DHT22;32202;48.780;9.204;2022-08-01T07:03:20;39.50;37.70
46488;DHT22;32202;48.780;9.204;2022-08-01T07:05:45;39.40;37.40
46488;DHT22;32202;48.780;9.204;2022-08-01T07:08:11;39.30;37.80
46488;DHT22;32202;48.780;9.204;2022-08-01T07:10:36;39.40;37.70
46488;DHT22;32202;48.780;9.204;2022-08-01T07:13:02;40.10;37.60
46488;DHT22;32202;48.780;9.204;2022-08-01T07:15:28;40.80;36.60
46488;DHT22;32202;48.780;9.204;2022-08-01T07:17:53;41.20;36.10
46488;DHT22;32202;48.780;9.204;2022-08-01T07:20:19;40.80;36.20
46488;DHT22;32202;48.780;9.204;2022-08-01T07:22:45;39.50;37.10
46488;DHT22;32202;48.780;9.204;2022-08-01T07:25:10;37.60;38.90
46488;DHT22;32202;48.780;9.204;2022-08-01T07:27:36;36.30;40.50
46488;DHT22;32202;48.780;9.204;2022-08-01T07:30:03;34.70;42.10
46488;DHT22;32202;48.780;9.204;2022-08-01T07:32:29;33.80;43.60
46488;DHT22;32202;48.780;9.204;2022-08-01T07:34:55;33.50;44.10
46488;DHT22;32202;48.780;9.204;2022-08-01T07:37:21;34.70;42.80
46488;DHT22;32202;48.780;9.204;2022-08-01T07:39:46;36.90;40.50
46488;DHT22;32202;48.780;9.204;2022-08-01T07:42:12;38.90;38.60
46488;DHT22;32202;48.780;9.204;2022-08-01T07:44:38;40.50;37.00
46488;DHT22;32202;48.780;9.204;2022-08-01T07:47:05;41.30;36.40
46488;DHT22;32202;48.780;9.204;2022-08-01T07:49:31;42.10;35.40
46488;DHT22;32202;48.780;9.204;2022-08-01T07:51:56;42.10;35.10
46488;DHT22;32202;48.780;9.204;2022-08-01T07:54:22;41.20;35.90
46488;DHT22;32202;48.780;9.204;2022-08-01T07:56:50;39.50;37.00
46488;DHT22;32202;48.780;9.204;2022-08-01T07:59:15;37.90;38.60
46488;DHT22;32202;48.780;9.204;2022-08-01T08:01:41;37.80;38.90
46488;DHT22;32202;48.780;9.204;2022-08-01T08:04:07;37.70;39.00
46488;DHT22;32202;48.780;9.204;2022-08-01T08:06:32;38.70;38.10
46488;DHT22;32202;48.780;9.204;2022-08-01T08:08:58;40.40;37.00
46488;DHT22;32202;48.780;9.204;2022-08-01T08:11:24;40.60;36.40
46488;DHT22;32202;48.780;9.204;2022-08-01T08:13:49;39.80;37.00
46488;DHT22;32202;48.780;9.204;2022-08-01T08:16:15;38.40;38.60
46488;DHT22;32202;48.780;9.204;2022-08-01T08:18:41;37.40;39.10
46488;DHT22;32202;48.780;9.204;2022-08-01T08:21:06;36.30;40.40
46488;DHT22;32202;48.780;9.204;2022-08-01T08:23:32;35.30;41.30
46488;DHT22;32202;48.780;9.204;2022-08-01T08:26:16;36.00;41.00
46488;DHT22;32202;48.780;9.204;2022-08-01T08:28:41;37.60;39.40
46488;DHT22;32202;48.780;9.204;2022-08-01T08:31:07;38.20;38.50
46488;DHT22;32202;48.780;9.204;2022-08-01T08:33:33;39.60;37.40
46488;DHT22;32202;48.780;9.204;2022-08-01T08:35:59;40.80;36.10
46488;DHT22;32202;48.780;9.204;2022-08-01T08:38:24;42.40;35.20
46488;DHT22;32202;48.780;9.204;2022-08-01T08:40:52;43.80;34.20
46488;DHT22;32202;48.780;9.204;2022-08-01T08:43:18;44.80;33.50
46488;DHT22;32202;48.780;9.204;2022-08-01T08:45:45;45.90;33.00
46488;DHT22;32202;48.780;9.204;2022-08-01T08:48:12;46.20;32.30
46488;DHT22;32202;48.780;9.204;2022-08-01T08:50:38;44.80;32.90
46488;DHT22;32202;48.780;9.204;2022-08-01T08:53:04;43.10;33.90
46488;DHT22;32202;48.780;9.204;2022-08-01T08:55:30;42.90;34.40
46488;DHT22;32202;48.780;9.204;2022-08-01T08:57:56;42.30;34.70
46488;DHT22;32202;48.780;9.204;2022-08-01T09:00:22;41.30;35.30
46488;DHT22;32202;48.780;9.204;2022-08-01T09:02:48;40.20;36.30
46488;DHT22;32202;48.780;9.204;2022-08-01T09:05:22;39.40;37.10
46488;DHT22;32202;48.780;9.204;2022-08-01T09:07:52;38.50;37.70
46488;DHT22;32202;48.780;9.204;2022-08-01T09:10:18;37.70;38.60
46488;DHT22;32202;48.780;9.204;2022-08-01T09:13:03;37.00;39.40
46488;DHT22;32202;48.780;9.204;2022-08-01T09:15:44;36.70;39.80
46488;DHT22;32202;48.780;9.204;2022-08-01T09:18:38;36.20;40.20
46488;DHT22;32202;48.780;9.204;2022-08-01T09:23:48;36.10;40.20
46488;DHT22;32202;48.780;9.204;2022-08-01T09:26:16;36.30;40.20
46488;DHT22;32202;48.780;9.204;2022-08-01T09:28:43;36.60;40.10
46488;DHT22;32202;48.780;9.204;2022-08-01T09:31:12;38.00;38.70
46488;DHT22;32202;48.780;9.204;2022-08-01T09:33:58;39.40;37.30
46488;DHT22;32202;48.780;9.204;2022-08-01T09:36:27;39.90;36.60
46488;DHT22;32202;48.780;9.204;2022-08-01T09:38:54;39.00;37.20
46488;DHT22;32202;48.780;9.204;2022-08-01T09:41:32;38.20;38.10
46488;DHT22;32202;48.780;9.204;2022-08-01T09:43:57;38.20;38.50
46488;DHT22;32202;48.780;9.204;2022-08-01T09:46:24;38.30;38.20
46488;DHT22;32202;48.780;9.204;2022-08-01T09:49:01;37.70;38.50
46488;DHT22;32202;48.780;9.204;2022-08-01T09:51:29;38.10;38.60
46488;DHT22;32202;48.780;9.204;2022-08-01T09:53:55;39.80;37.20
46488;DHT22;32202;48.780;9.204;2022-08-01T09:56:22;42.30;35.80
46488;DHT22;32202;48.780;9.204;2022-08-01T09:58:58;43.70;34.00
46488;DHT22;32202;48.780;9.204;2022-08-01T10:01:25;43.10;34.00
46488;DHT22;32202;48.780;9.204;2022-08-01T10:06:35;42.30;34.80
46488;DHT22;32202;48.780;9.204;2022-08-01T10:09:02;42.20;34.70
46488;DHT22;32202;48.780;9.204;2022-08-01T10:11:28;41.30;35.30
46488;DHT22;32202;48.780;9.204;2022-08-01T10:13:56;42.10;35.10
46488;DHT22;32202;48.780;9.204;2022-08-01T10:16:24;42.40;34.70
46488;DHT22;32202;48.780;9.204;2022-08-01T10:18:52;42.30;34.70
46488;DHT22;32202;48.780;9.204;2022-08-01T10:21:20;42.90;34.40
46488;DHT22;32202;48.780;9.204;2022-08-01T10:23:46;44.10;33.70
46488;DHT22;32202;48.780;9.204;2022-08-01T10:26:13;45.70;32.50
46488;DHT22;32202;48.780;9.204;2022-08-01T10:28:39;47.00;31.90
46488;DHT22;32202;48.780;9.204;2022-08-01T10:31:07;48.30;31.10
46488;DHT22;32202;48.780;9.204;2022-08-01T10:33:33;48.20;30.80
46488;DHT22;32202;48.780;9.204;2022-08-01T10:36:01;49.10;30.70
46488;DHT22;32202;48.780;9.204;2022-08-01T10:38:27;50.00;30.20
46488;DHT22;32202;48.780;9.204;2022-08-01T10:40:54;51.00;29.90
46488;DHT22;32202;48.780;9.204;2022-08-01T10:43:22;51.50;29.70
46488;DHT22;32202;48.780;9.204;2022-08-01T10:45:48;50.60;29.80
46488;DHT22;32202;48.780;9.204;2022-08-01T10:48:14;50.30;29.90
46488;DHT22;32202;48.780;9.204;2022-08-01T10:53:21;47.80;30.30
46488;DHT22;32202;48.780;9.204;2022-08-01T10:58:14;42.40;33.60
46488;DHT22;32202;48.780;9.204;2022-08-01T11:00:45;40.40;34.90
46488;DHT22;32202;48.780;9.204;2022-08-01T11:03:10;38.70;36.70
46488;DHT22;32202;48.780;9.204;2022-08-01T11:05:36;38.20;37.10
46488;DHT22;32202;48.780;9.204;2022-08-01T11:08:10;37.90;37.40
46488;DHT22;32202;48.780;9.204;2022-08-01T11:10:39;37.70;37.70
46488;DHT22;32202;48.780;9.204;2022-08-01T11:13:06;37.60;38.50
46488;DHT22;32202;48.780;9.204;2022-08-01T11:15:37;38.40;37.40
46488;DHT22;32202;48.780;9.204;2022-08-01T11:20:56;40.70;35.30
46488;DHT22;32202;48.780;9.204;2022-08-01T11:23:24;40.40;35.20
46488;DHT22;32202;48.780;9.204;2022-08-01T11:30:45;37.80;37.30
46488;DHT22;32202;48.780;9.204;2022-08-01T11:33:13;37.10;38.10
46488;DHT22;32202;48.780;9.204;2022-08-01T11:39:26;37.20;38.10
46488;DHT22;32202;48.780;9.204;2022-08-01T11:41:34;37.20;38.90
46488;DHT22;32202;48.780;9.204;2022-08-01T11:44:11;39.00;36.60
46488;DHT22;32202;48.780;9.204;2022-08-01T11:46:58;41.20;35.00
46488;DHT22;32202;48.780;9.204;2022-08-01T11:52:07;41.70;34.70
46488;DHT22;32202;48.780;9.204;2022-08-01T11:54:42;40.70;34.90
46488;DHT22;32202;48.780;9.204;2022-08-01T11:57:11;39.00;36.00
46488;DHT22;32202;48.780;9.204;2022-08-01T11:59:41;38.10;36.90
46488;DHT22;32202;48.780;9.204;2022-08-01T12:02:28;37.40;37.40
46488;DHT22;32202;48.780;9.204;2022-08-01T12:07:25;36.80;38.50
46488;DHT22;32202;48.780;9.204;2022-08-01T12:10:00;36.30;38.70
46488;DHT22;32202;48.780;9.204;2022-08-01T12:12:26;35.50;39.50
46488;DHT22;32202;48.780;9.204;2022-08-01T12:14:54;34.90;40.20
46488;DHT22;32202;48.780;9.204;2022-08-01T12:17:27;34.70;40.60
46488;DHT22;32202;48.780;9.204;2022-08-01T12:19:52;36.40;39.20
46488;DHT22;32202;48.780;9.204;2022-08-01T12:22:22;38.00;37.50
46488;DHT22;32202;48.780;9.204;2022-08-01T12:24:48;38.00;36.70
46488;DHT22;32202;48.780;9.204;2022-08-01T12:27:27;37.50;36.90
46488;DHT22;32202;48.780;9.204;2022-08-01T12:29:53;37.10;37.40
46488;DHT22;32202;48.780;9.204;2022-08-01T12:34:54;35.00;39.30
46488;DHT22;32202;48.780;9.204;2022-08-01T12:37:21;34.00;40.50
46488;DHT22;32202;48.780;9.204;2022-08-01T12:39:47;33.60;41.70
46488;DHT22;32202;48.780;9.204;2022-08-01T12:42:13;33.00;42.60
46488;DHT22;32202;48.780;9.204;2022-08-01T12:44:40;32.80;43.30
46488;DHT22;32202;48.780;9.204;2022-08-01T12:47:07;33.30;42.90
46488;DHT22;32202;48.780;9.204;2022-08-01T12:49:35;34.80;41.40
46488;DHT22;32202;48.780;9.204;2022-08-01T12:52:02;37.40;38.80
46488;DHT22;32202;48.780;9.204;2022-08-01T12:54:28;39.20;37.00
46488;DHT22;32202;48.780;9.204;2022-08-01T12:56:54;40.90;35.40
46488;DHT22;32202;48.780;9.204;2022-08-01T12:59:25;40.80;34.90
46488;DHT22;32202;48.780;9.204;2022-08-01T13:01:55;40.00;35.50
46488;DHT22;32202;48.780;9.204;2022-08-01T13:04:22;38.70;36.20
46488;DHT22;32202;48.780;9.204;2022-08-01T13:06:52;37.70;37.40
46488;DHT22;32202;48.780;9.204;2022-08-01T13:09:18;36.90;38.20
46488;DHT22;32202;48.780;9.204;2022-08-01T13:11:44;36.40;38.70
46488;DHT22;32202;48.780;9.204;2022-08-01T13:14:26;36.00;39.30
46488;DHT22;32202;48.780;9.204;2022-08-01T13:16:52;35.80;39.50
46488;DHT22;32202;48.780;9.204;2022-08-01T13:19:18;36.30;39.00
46488;DHT22;32202;48.780;9.204;2022-08-01T13:21:54;36.00;39.30
46488;DHT22;32202;48.780;9.204;2022-08-01T13:24:28;35.60;39.80
46488;DHT22;32202;48.780;9.204;2022-08-01T13:26:57;35.00;40.40
46488;DHT22;32202;48.780;9.204;2022-08-01T13:29:43;34.80;40.90
46488;DHT22;32202;48.780;9.204;2022-08-01T13:32:21;35.10;40.50
46488;DHT22;32202;48.780;9.204;2022-08-01T13:34:47;35.50;40.40
46488;DHT22;32202;48.780;9.204;2022-08-01T13:37:13;35.50;39.80
46488;DHT22;32202;48.780;9.204;2022-08-01T13:39:39;35.20;40.40
46488;DHT22;32202;48.780;9.204;2022-08-01T13:42:16;35.10;40.50
46488;DHT22;32202;48.780;9.204;2022-08-01T13:44:42;34.90;40.70
46488;DHT22;32202;48.780;9.204;2022-08-01T13:47:10;34.70;40.90
46488;DHT22;32202;48.780;9.204;2022-08-01T13:49:36;34.40;41.30
46488;DHT22;32202;48.780;9.204;2022-08-01T13:52:02;34.20;41.20
46488;DHT22;32202;48.780;9.204;2022-08-01T13:54:28;34.20;41.50
46488;DHT22;32202;48.780;9.204;2022-08-01T13:56:53;34.30;41.40
46488;DHT22;32202;48.780;9.204;2022-08-01T13:59:20;34.40;41.20
46488;DHT22;32202;48.780;9.204;2022-08-01T14:01:46;34.80;40.70
46488;DHT22;32202;48.780;9.204;2022-08-01T14:04:11;34.80;40.70
46488;DHT22;32202;48.780;9.204;2022-08-01T14:06:37;34.40;41.50
46488;DHT22;32202;48.780;9.204;2022-08-01T14:09:06;34.30;41.50
46488;DHT22;32202;48.780;9.204;2022-08-01T14:11:31;34.10;41.70
46488;DHT22;32202;48.780;9.204;2022-08-01T14:13:57;34.00;42.10
46488;DHT22;32202;48.780;9.204;2022-08-01T14:16:23;34.00;41.80
46488;DHT22;32202;48.780;9.204;2022-08-01T14:18:49;33.80;42.00
46488;DHT22;32202;48.780;9.204;2022-08-01T14:21:15;33.60;42.20
46488;DHT22;32202;48.780;9.204;2022-08-01T14:23:41;33.50;42.40
46488;DHT22;32202;48.780;9.204;2022-08-01T14:26:10;33.50;42.40
46488;DHT22;32202;48.780;9.204;2022-08-01T14:28:37;33.50;42.40
46488;DHT22;32202;48.780;9.204;2022-08-01T14:31:03;33.50;42.50
46488;DHT22;32202;48.780;9.204;2022-08-01T14:33:29;33.50;42.40
46488;DHT22;32202;48.780;9.204;2022-08-01T14:35:56;33.60;42.30
46488;DHT22;32202;48.780;9.204;2022-08-01T14:38:21;33.50;42.40
46488;DHT22;32202;48.780;9.204;2022-08-01T14:40:47;33.40;42.30
46488;DHT22;32202;48.780;9.204;2022-08-01T14:43:19;33.50;42.20
46488;DHT22;32202;48.780;9.204;2022-08-01T14:45:45;33.60;42.20
46488;DHT22;32202;48.780;9.204;2022-08-01T14:48:14;33.80;42.20
46488;DHT22;32202;48.780;9.204;2022-08-01T14:50:40;33.90;42.10
46488;DHT22;32202;48.780;9.204;2022-08-01T14:53:06;34.00;42.00
46488;DHT22;32202;48.780;9.204;2022-08-01T14:55:31;34.10;42.00
46488;DHT22;32202;48.780;9.204;2022-08-01T14:57:57;34.20;41.70
46488;DHT22;32202;48.780;9.204;2022-08-01T15:00:23;34.20;41.70
46488;DHT22;32202;48.780;9.204;2022-08-01T15:02:48;34.30;41.70
46488;DHT22;32202;48.780;9.204;2022-08-01T15:05:14;34.10;41.60
46488;DHT22;32202;48.780;9.204;2022-08-01T15:07:39;34.10;41.70
46488;DHT22;32202;48.780;9.204;2022-08-01T15:10:06;33.90;41.90
46488;DHT22;32202;48.780;9.204;2022-08-01T15:12:32;33.70;42.10
46488;DHT22;32202;48.780;9.204;2022-08-01T15:14:59;33.40;42.40
46488;DHT22;32202;48.780;9.204;2022-08-01T15:17:27;33.30;42.80
46488;DHT22;32202;48.780;9.204;2022-08-01T15:20:05;33.30;42.90
46488;DHT22;32202;48.780;9.204;2022-08-01T15:22:31;33.30;42.80
46488;DHT22;32202;48.780;9.204;2022-08-01T15:24:59;33.30;42.80
46488;DHT22;32202;48.780;9.204;2022-08-01T15:27:26;33.10;42.90
46488;DHT22;32202;48.780;9.204;2022-08-01T15:29:52;33.00;43.20
46488;DHT22;32202;48.780;9.204;2022-08-01T15:32:17;32.90;43.30
46488;DHT22;32202;48.780;9.204;2022-08-01T15:34:44;32.80;43.20
46488;DHT22;32202;48.780;9.204;2022-08-01T15:37:10;32.60;43.10
46488;DHT22;32202;48.780;9.204;2022-08-01T15:39:37;32.60;43.10
46488;DHT22;32202;48.780;9.204;2022-08-01T15:42:06;32.60;43.20
46488;DHT22;32202;48.780;9.204;2022-08-01T15:44:32;32.60;43.30
46488;DHT22;32202;48.780;9.204;2022-08-01T15:46:59;32.50;43.20
46488;DHT22;32202;48.780;9.204;2022-08-01T15:49:25;32.40;43.40
46488;DHT22;32202;48.780;9.204;2022-08-01T15:51:51;32.30;43.20
46488;DHT22;32202;48.780;9.204;2022-08-01T15:54:17;32.20;43.50
46488;DHT22;32202;48.780;9.204;2022-08-01T15:56:43;32.20;43.40
46488;DHT22;32202;48.780;9.204;2022-08-01T15:59:09;32.10;43.20
46488;DHT22;32202;48.780;9.204;2022-08-01T16:01:34;32.10;43.40
46488;DHT22;32202;48.780;9.204;2022-08-01T16:04:00;31.90;43.50
46488;DHT22;32202;48.780;9.204;2022-08-01T16:06:26;31.90;43.70
46488;DHT22;32202;48.780;9.204;2022-08-01T16:08:52;31.80;43.80
46488;DHT22;32202;48.780;9.204;2022-08-01T16:11:18;31.70;43.80
46488;DHT22;32202;48.780;9.204;2022-08-01T16:13:44;31.60;43.90